ZLXY/XIY METAR and TAF weather

Enter ICAO airport designator
Station Type Date Time Source
ZLXY METAR 2019/08/20 10:00 UTC NOAA

ZLXY 201000Z 24004MPS 210V280 9999 SCT030 OVC050 25/19 Q1011 NOSIG


Station Type Date Time Source
ZLXY Decoded METAR 2019/08/20 10:00 UTC NOAA

Xian/Xianyang, China (ZLXY) 34-26N 108-45E
Aug 20, 2019 - 06:00 AM EDT / 2019.08.20 1000 UTC
Wind: from the WSW (240 degrees) at 9 MPH (8 KT) (direction variable):0
Visibility: greater than 7 mile(s):0
Sky conditions: overcast
Temperature: 77 F (25 C)
Dew Point: 66 F (19 C)
Relative Humidity: 69%
Pressure (altimeter): 29.85 in. Hg (1011 hPa)
ob: ZLXY 201000Z 24004MPS 210V280 9999 SCT030 OVC050 25/19 Q1011 NOSIG
cycle: 10

Station Type Date Time Source
ZLXY TAF 2019/08/20 12:03 UTC NOAA

TAF ZLXY 200908Z 2012/2112 24004MPS 6000 SCT040 OVC060 TX32/2109Z TN21/2021Z
TEMPO 2012/2016 2800 -SHRA

Example: see airport list